createdAt,value
2018-07-31T01:48:39.931Z,22.64
2018-07-31T01:49:38.055Z,22.55
2018-07-31T01:50:38.131Z,22.47
2018-07-31T01:51:39.193Z,22.54
2018-07-31T01:52:37.834Z,22.46
2018-07-31T01:53:39.730Z,22.47
2018-07-31T01:54:39.720Z,22.37
2018-07-31T01:55:37.867Z,22.25
2018-07-31T01:56:40.590Z,22.27
2018-07-31T01:57:37.747Z,22.20
2018-07-31T01:58:37.901Z,22.07
2018-07-31T01:59:37.991Z,22.18
2018-07-31T02:00:37.840Z,22.15
2018-07-31T02:01:39.628Z,22.18
2018-07-31T02:02:38.833Z,22.18
2018-07-31T02:03:37.870Z,22.15
2018-07-31T02:04:38.601Z,22.05
2018-07-31T02:05:37.740Z,22.03
2018-07-31T02:06:39.720Z,22.00
2018-07-31T02:07:37.751Z,21.94
2018-07-31T02:08:37.721Z,21.92
2018-07-31T02:09:37.733Z,21.86
2018-07-31T02:10:40.734Z,21.84
2018-07-31T02:11:37.794Z,21.84
2018-07-31T02:12:38.634Z,21.83
2018-07-31T02:24:47.592Z,21.71
2018-07-31T02:25:47.423Z,21.67
2018-07-31T02:26:47.544Z,21.72
2018-07-31T02:27:47.352Z,21.74
2018-07-31T02:28:47.396Z,21.72
2018-07-31T02:29:47.450Z,21.80
2018-07-31T02:30:49.337Z,21.82
2018-07-31T02:31:51.780Z,21.71
2018-07-31T02:32:47.379Z,21.74
2018-07-31T02:33:47.454Z,21.79
2018-07-31T02:34:47.435Z,21.75
2018-07-31T02:35:47.359Z,21.75
2018-07-31T02:36:50.304Z,21.75
2018-07-31T02:37:47.291Z,21.68
2018-07-31T02:38:48.326Z,21.64
2018-07-31T02:39:47.360Z,21.71
2018-07-31T02:40:47.233Z,21.69
2018-07-31T02:41:47.288Z,21.65
2018-07-31T02:42:47.229Z,21.61
2018-07-31T02:43:49.866Z,21.65
2018-07-31T02:44:47.205Z,21.56
2018-07-31T02:45:47.211Z,21.56
2018-07-31T02:46:47.776Z,21.54
2018-07-31T02:47:48.682Z,21.64
2018-07-31T02:48:47.122Z,21.53
2018-07-31T02:49:47.112Z,21.49
2018-07-31T02:50:47.738Z,21.47
2018-07-31T02:51:51.698Z,21.49
2018-07-31T02:52:47.235Z,21.58
2018-07-31T02:53:47.052Z,21.47
2018-07-31T02:54:47.025Z,21.49
2018-07-31T02:55:47.710Z,21.50
2018-07-31T02:56:48.228Z,21.53
2018-07-31T02:57:46.962Z,21.44
2018-07-31T02:58:48.675Z,21.47
2018-07-31T02:59:48.709Z,21.31
2018-07-31T03:00:47.824Z,21.34
2018-07-31T03:01:48.766Z,21.29
2018-07-31T03:02:46.907Z,21.29
2018-07-31T03:03:53.728Z,21.29
2018-07-31T03:04:47.010Z,21.29
2018-07-31T03:05:47.005Z,21.32
2018-07-31T03:06:47.716Z,21.40
2018-07-31T03:07:46.912Z,21.40
2018-07-31T03:08:46.882Z,21.35
2018-07-31T03:09:46.875Z,21.34
2018-07-31T03:10:46.923Z,21.29
2018-07-31T03:11:48.713Z,21.31
2018-07-31T03:12:48.902Z,21.31
2018-07-31T03:13:46.853Z,21.29
2018-07-31T03:14:46.887Z,21.31
2018-07-31T03:15:46.844Z,21.37
2018-07-31T03:16:46.969Z,21.32
2018-07-31T03:17:46.776Z,21.47
2018-07-31T03:18:46.902Z,21.43
2018-07-31T03:19:46.782Z,21.46
2018-07-31T03:20:48.709Z,21.31
2018-07-31T03:21:46.884Z,21.42
2018-07-31T03:22:46.818Z,21.34
2018-07-31T03:23:46.679Z,21.24
2018-07-31T03:24:46.838Z,21.35
2018-07-31T03:25:46.796Z,21.31
2018-07-31T03:26:46.781Z,21.28
2018-07-31T03:27:46.715Z,21.32
2018-07-31T03:28:46.628Z,21.31
2018-07-31T03:29:46.606Z,21.22
2018-07-31T03:30:46.697Z,21.25
2018-07-31T03:31:46.693Z,21.28
2018-07-31T03:32:46.663Z,21.28
2018-07-31T03:33:46.550Z,21.14
2018-07-31T03:34:46.576Z,21.25
2018-07-31T03:35:46.560Z,21.19
2018-07-31T03:36:48.278Z,21.25
2018-07-31T03:37:46.544Z,21.14
2018-07-31T03:38:46.564Z,21.10
2018-07-31T03:39:46.572Z,21.13
2018-07-31T03:40:46.576Z,21.14
2018-07-31T03:41:46.593Z,21.14
2018-07-31T03:42:46.572Z,21.13
2018-07-31T03:43:46.487Z,21.10
2018-07-31T03:44:46.593Z,21.13
2018-07-31T03:45:46.692Z,21.14
2018-07-31T03:46:47.198Z,21.14
2018-07-31T03:47:46.491Z,21.16
2018-07-31T03:48:46.461Z,21.14
2018-07-31T03:49:46.437Z,21.16
2018-07-31T03:50:46.393Z,21.17
2018-07-31T03:51:53.183Z,21.12
2018-07-31T03:52:46.342Z,21.14
2018-07-31T03:53:46.689Z,21.09
2018-07-31T03:57:13.651Z,21.09
2018-07-31T03:58:13.437Z,21.07
2018-07-31T03:59:13.338Z,21.12
2018-07-31T04:00:13.368Z,21.09
2018-07-31T04:01:13.252Z,21.09
2018-07-31T04:02:13.364Z,21.16
2018-07-31T04:03:13.313Z,21.10
2018-07-31T04:04:13.226Z,21.17
2018-07-31T04:05:13.363Z,21.10
2018-07-31T04:06:13.858Z,21.13
2018-07-31T04:07:13.283Z,21.10
2018-07-31T04:08:13.332Z,21.09
2018-07-31T04:09:13.314Z,21.16
2018-07-31T04:10:13.414Z,21.12
2018-07-31T04:11:13.350Z,21.06
2018-07-31T04:12:13.327Z,21.12
2018-07-31T04:13:13.211Z,21.21
2018-07-31T04:14:13.117Z,21.07
2018-07-31T04:15:13.184Z,21.09
2018-07-31T04:16:13.222Z,21.12
2018-07-31T04:17:13.160Z,21.09
2018-07-31T04:18:13.143Z,21.10
2018-07-31T04:19:13.076Z,21.10
2018-07-31T04:20:14.115Z,21.12
2018-07-31T04:21:13.140Z,21.16
2018-07-31T04:22:13.169Z,21.14
2018-07-31T04:23:13.069Z,21.14
2018-07-31T04:24:13.829Z,21.13
2018-07-31T04:25:13.031Z,21.17
2018-07-31T04:26:12.969Z,21.10
2018-07-31T04:27:13.236Z,21.12
2018-07-31T04:28:13.082Z,21.16
2018-07-31T04:29:12.979Z,21.17
2018-07-31T04:30:13.203Z,21.14
2018-07-31T04:31:13.045Z,21.19
2018-07-31T04:32:13.083Z,21.09
2018-07-31T04:33:12.944Z,20.99
2018-07-31T04:34:12.995Z,21.10
2018-07-31T04:35:12.951Z,21.07
2018-07-31T04:36:12.954Z,21.01
2018-07-31T04:37:13.179Z,20.99
2018-07-31T04:38:13.013Z,21.01
2018-07-31T04:39:12.831Z,21.12
2018-07-31T04:40:14.004Z,20.99
2018-07-31T04:41:12.860Z,21.01
2018-07-31T04:42:12.819Z,21.03
2018-07-31T04:43:12.915Z,21.13
2018-07-31T04:44:12.824Z,21.12
2018-07-31T04:45:12.791Z,21.10
2018-07-31T04:46:12.862Z,21.10
2018-07-31T04:47:12.756Z,21.07
2018-07-31T04:48:12.909Z,21.09
2018-07-31T04:49:12.743Z,21.09
2018-07-31T04:50:12.756Z,21.12
2018-07-31T04:51:12.798Z,21.16
2018-07-31T04:52:12.820Z,21.16
2018-07-31T04:53:12.772Z,21.16
2018-07-31T04:54:12.690Z,21.17
2018-07-31T04:55:12.690Z,21.24
2018-07-31T04:56:12.813Z,21.28
2018-07-31T04:57:12.687Z,21.28
2018-07-31T04:58:12.791Z,21.31
2018-07-31T04:59:12.762Z,21.22
2018-07-31T05:00:12.803Z,21.28
2018-07-31T05:01:12.605Z,21.35
2018-07-31T05:02:12.605Z,21.34
2018-07-31T05:03:12.878Z,21.35
2018-07-31T05:04:12.573Z,21.37
2018-07-31T05:05:13.430Z,21.37
2018-07-31T05:06:12.634Z,21.40
2018-07-31T05:07:12.538Z,21.44
2018-07-31T05:08:12.636Z,21.37
2018-07-31T05:09:12.506Z,21.42
2018-07-31T05:10:12.545Z,21.46
2018-07-31T05:11:12.510Z,21.43
2018-07-31T05:12:12.490Z,21.44
2018-07-31T05:13:12.512Z,21.46
2018-07-31T05:14:12.622Z,21.43
2018-07-31T05:15:12.526Z,21.34
2018-07-31T05:16:12.492Z,21.47
2018-07-31T05:17:12.462Z,21.44
2018-07-31T05:18:12.948Z,21.46
2018-07-31T05:19:13.332Z,21.40
2018-07-31T05:20:12.559Z,21.31
2018-07-31T05:21:12.549Z,21.42
2018-07-31T05:22:12.435Z,21.40
2018-07-31T05:23:12.427Z,21.50
2018-07-31T05:24:12.484Z,21.40
2018-07-31T05:25:12.418Z,21.50
2018-07-31T05:26:12.369Z,21.49
2018-07-31T05:27:12.884Z,21.54
2018-07-31T05:28:12.365Z,21.64
2018-07-31T05:29:12.338Z,21.71
2018-07-31T05:30:12.269Z,21.72
2018-07-31T05:31:12.241Z,21.91
2018-07-31T05:32:12.439Z,21.94
2018-07-31T05:33:12.431Z,22.05
2018-07-31T05:34:12.344Z,22.14
2018-07-31T05:35:12.192Z,22.22
2018-07-31T05:36:12.237Z,22.21
2018-07-31T05:37:12.187Z,22.27
2018-07-31T05:38:12.340Z,22.28
2018-07-31T05:39:12.181Z,22.37
2018-07-31T05:40:12.154Z,22.36
2018-07-31T05:41:12.136Z,22.42
2018-07-31T05:42:12.182Z,22.46
2018-07-31T05:43:12.192Z,22.60
2018-07-31T05:44:12.122Z,22.52
2018-07-31T05:45:12.160Z,22.46
2018-07-31T05:46:12.085Z,22.55
2018-07-31T05:47:12.068Z,22.52
2018-07-31T05:48:12.145Z,22.46
2018-07-31T05:49:12.089Z,22.47
2018-07-31T05:50:12.081Z,22.43
2018-07-31T05:51:12.030Z,22.42
2018-07-31T05:52:12.042Z,22.40
2018-07-31T05:53:12.071Z,22.25
2018-07-31T05:54:12.060Z,22.37
2018-07-31T05:55:12.103Z,22.46
2018-07-31T05:56:12.036Z,22.42
2018-07-31T05:57:12.024Z,22.54
2018-07-31T05:58:12.028Z,22.52
2018-07-31T05:59:12.006Z,22.60
2018-07-31T06:00:11.981Z,22.64
2018-07-31T06:01:11.943Z,22.68
2018-07-31T06:02:11.923Z,22.72
2018-07-31T06:03:12.016Z,22.88
2018-07-31T06:04:11.915Z,22.94
2018-07-31T06:05:11.894Z,23.04
2018-07-31T06:06:11.880Z,23.05
2018-07-31T06:07:11.849Z,23.32
2018-07-31T06:08:11.948Z,23.25
2018-07-31T06:09:11.978Z,23.36
2018-07-31T06:10:11.873Z,23.40
2018-07-31T06:11:11.849Z,23.54
2018-07-31T06:12:11.804Z,23.68
2018-07-31T06:13:11.842Z,23.73
2018-07-31T06:14:11.763Z,23.78
2018-07-31T06:15:12.218Z,23.87
2018-07-31T06:16:11.799Z,23.91
2018-07-31T06:17:11.730Z,24.10
2018-07-31T06:18:11.848Z,24.12
2018-07-31T06:19:11.798Z,24.08
2018-07-31T06:20:11.748Z,24.09
2018-07-31T06:21:11.761Z,24.12
2018-07-31T06:22:11.745Z,24.22
2018-07-31T06:23:11.696Z,24.21
2018-07-31T06:24:11.826Z,24.22
2018-07-31T06:25:11.764Z,24.25
2018-07-31T06:26:11.746Z,24.21
2018-07-31T06:27:11.666Z,24.28
2018-07-31T06:28:11.693Z,24.32
2018-07-31T06:29:12.360Z,24.28
2018-07-31T06:30:11.803Z,24.16
2018-07-31T06:31:11.595Z,24.27
2018-07-31T06:32:11.622Z,24.24
2018-07-31T06:33:11.643Z,24.28
2018-07-31T06:34:11.739Z,24.24
2018-07-31T06:35:11.604Z,24.28
2018-07-31T06:36:11.609Z,24.27
2018-07-31T06:37:11.608Z,24.31
2018-07-31T06:38:11.665Z,24.34
2018-07-31T06:39:11.648Z,24.27
2018-07-31T06:40:11.543Z,24.37
2018-07-31T06:41:11.505Z,24.37
2018-07-31T06:42:11.471Z,24.31
2018-07-31T06:43:11.507Z,24.35
2018-07-31T06:44:12.006Z,24.35
2018-07-31T06:45:11.460Z,24.35
2018-07-31T06:46:11.543Z,24.31
2018-07-31T06:47:11.501Z,24.37
2018-07-31T06:48:11.432Z,24.39
2018-07-31T06:49:11.585Z,24.42
2018-07-31T06:50:11.464Z,24.50
2018-07-31T06:51:11.492Z,24.62
2018-07-31T06:52:11.450Z,24.58
2018-07-31T06:53:11.442Z,24.61
2018-07-31T06:54:11.564Z,24.65
2018-07-31T06:55:11.367Z,24.73
2018-07-31T06:56:11.469Z,24.77
2018-07-31T06:58:51.702Z,24.76
2018-07-31T06:59:51.694Z,24.71
2018-07-31T07:00:51.413Z,24.80
2018-07-31T07:01:51.429Z,24.90
2018-07-31T07:02:51.612Z,24.93
2018-07-31T07:03:51.464Z,24.95
2018-07-31T07:04:51.481Z,24.96
2018-07-31T07:05:51.409Z,25.10
2018-07-31T07:06:51.431Z,25.13
2018-07-31T07:07:51.403Z,25.14
2018-07-31T07:08:51.548Z,25.25
2018-07-31T07:09:51.513Z,25.36
2018-07-31T07:10:51.484Z,25.46
2018-07-31T07:11:51.334Z,25.61
2018-07-31T07:12:51.311Z,25.47
2018-07-31T07:13:51.498Z,25.52
2018-07-31T07:14:51.371Z,25.46
2018-07-31T07:15:51.376Z,25.57
2018-07-31T07:16:51.271Z,25.69
2018-07-31T07:17:51.459Z,25.82
2018-07-31T07:18:54.572Z,25.94
2018-07-31T07:24:39.170Z,26.20
2018-07-31T07:25:38.274Z,26.28
2018-07-31T07:28:28.142Z,26.32
2018-07-31T07:29:28.414Z,26.26
2018-07-31T07:30:28.214Z,26.18
2018-07-31T07:31:28.837Z,26.12
2018-07-31T07:34:53.882Z,26.06
2018-07-31T07:35:46.464Z,26.21
2018-07-31T07:36:46.210Z,26.09
2018-07-31T07:37:46.892Z,26.29
2018-07-31T07:38:46.169Z,26.28
2018-07-31T07:39:46.293Z,26.28
2018-07-31T07:40:46.247Z,26.33
2018-07-31T07:41:46.141Z,26.33
2018-07-31T07:42:46.100Z,26.28
2018-07-31T07:52:49.060Z,26.77
2018-07-31T07:53:47.431Z,26.81
2018-07-31T07:54:47.502Z,26.92
2018-07-31T07:55:47.345Z,26.99
2018-07-31T07:59:05.112Z,27.18
2018-07-31T08:00:07.178Z,27.27
2018-07-31T08:01:04.899Z,27.25
2018-07-31T08:02:05.132Z,27.46
2018-07-31T08:08:44.590Z,27.78
2018-07-31T08:09:41.188Z,27.90
2018-07-31T08:10:41.100Z,27.87
2018-07-31T08:11:40.917Z,27.90
2018-07-31T08:12:40.921Z,27.99
2018-07-31T08:13:40.807Z,28.15
2018-07-31T08:14:40.983Z,28.17
2018-07-31T08:21:06.854Z,28.49
2018-07-31T08:22:06.044Z,28.49
2018-07-31T08:23:04.852Z,28.29
2018-07-31T08:24:04.867Z,28.24
2018-07-31T08:25:05.002Z,28.15
2018-07-31T08:27:50.870Z,28.29
2018-07-31T08:28:50.922Z,28.33
2018-07-31T08:29:50.828Z,28.40
2018-07-31T08:30:50.679Z,28.46
2018-07-31T08:31:50.588Z,28.54
2018-07-31T08:32:50.582Z,28.64
2018-07-31T08:33:50.606Z,28.73
2018-07-31T08:34:50.660Z,28.76
2018-07-31T08:35:50.551Z,28.67
2018-07-31T08:36:50.582Z,28.73
2018-07-31T08:37:50.637Z,28.70
2018-07-31T08:38:50.568Z,28.76
2018-07-31T08:39:50.562Z,28.83
2018-07-31T08:40:50.497Z,28.74
2018-07-31T08:41:50.486Z,28.83
2018-07-31T08:42:50.473Z,28.88
2018-07-31T08:43:50.456Z,29.02
2018-07-31T08:44:50.530Z,29.02
2018-07-31T08:45:50.442Z,29.28
2018-07-31T08:46:50.418Z,29.30
2018-07-31T08:47:50.445Z,29.34
2018-07-31T08:48:50.568Z,29.42
2018-07-31T08:52:08.921Z,29.43
2018-07-31T08:53:08.912Z,29.46
2018-07-31T08:54:08.811Z,29.46
2018-07-31T08:55:09.655Z,29.41
2018-07-31T08:56:08.753Z,29.48
2018-07-31T08:57:08.604Z,29.46
2018-07-31T08:58:09.352Z,29.65
2018-07-31T08:59:08.606Z,29.73
2018-07-31T09:00:08.655Z,29.71
2018-07-31T09:01:08.566Z,29.85
2018-07-31T09:02:08.547Z,29.87
2018-07-31T09:03:08.707Z,29.98
2018-07-31T09:04:08.629Z,29.97
2018-07-31T09:05:08.638Z,29.97
2018-07-31T09:06:08.569Z,30.00
2018-07-31T09:07:08.566Z,30.02
2018-07-31T09:08:08.549Z,30.04
2018-07-31T09:09:08.670Z,29.95
2018-07-31T09:13:36.829Z,30.02
2018-07-31T09:14:36.655Z,29.97
2018-07-31T09:15:36.645Z,29.89
2018-07-31T09:16:36.505Z,29.86
2018-07-31T09:17:36.543Z,29.95
2018-07-31T09:18:36.497Z,29.92
2018-07-31T09:19:36.492Z,29.92
2018-07-31T09:20:36.574Z,30.00
2018-07-31T09:21:36.449Z,30.15
2018-07-31T09:22:36.437Z,30.17
2018-07-31T09:23:36.521Z,30.22
2018-07-31T09:24:36.618Z,30.16
2018-07-31T09:25:36.521Z,30.16
2018-07-31T09:26:36.399Z,30.22
2018-07-31T09:27:36.399Z,30.43
2018-07-31T09:34:22.830Z,30.97
2018-07-31T09:35:23.021Z,31.14
2018-07-31T09:36:22.485Z,31.19
2018-07-31T09:38:53.655Z,31.12
2018-07-31T09:39:52.017Z,31.31
2018-07-31T09:43:29.472Z,31.58
2018-07-31T10:03:26.195Z,32.26
2018-07-31T10:04:26.139Z,32.32
2018-07-31T10:05:28.786Z,32.21
2018-07-31T10:06:25.916Z,32.04
2018-07-31T10:14:07.339Z,32.41
2018-07-31T10:15:15.087Z,32.47
2018-07-31T10:17:34.251Z,32.56
2018-07-31T10:18:34.009Z,32.37
2018-07-31T10:19:34.642Z,32.29
2018-07-31T10:20:36.733Z,32.13
2018-07-31T10:21:36.838Z,32.06
2018-07-31T10:22:33.955Z,32.18
2018-07-31T10:23:34.142Z,32.08
2018-07-31T10:24:34.116Z,32.06
2018-07-31T10:25:35.766Z,32.18
